Time;durP1;ratioP1;P1;durP2;ratioP2;P2;SDS_P1;SDS_P2;PMS_P1;PMS_P2;Temp;Humidity;BMP_temperature;BMP_pressure;BME280_temperature;BME280_humidity;BME280_pressure;Samples;Min_cycle;Max_cycle;Signal;HPM_P1;HPM_P2
2022/12/14 06:30:35;;;;;;;;;49.50;42.00;;;;;0.66;100.00;99749.31;6173765;22;1290721;-78
2022/12/14 06:33:00;;;;;;;;;37.00;31.75;;;;;-0.40;100.00;99563.09;6273991;22;49545;-70
2022/12/14 06:35:25;;;;;;;;;45.75;38.25;;;;;1.54;100.00;99859.09;6274874;22;49774;-72
2022/12/14 06:37:50;;;;;;;;;53.00;40.25;;;;;1.57;100.00;99859.25;6275013;22;49778;-73
2022/12/14 06:40:16;;;;;;;;;44.50;36.25;;;;;1.21;100.00;99787.88;6298967;22;49973;-68
2022/12/14 06:42:41;;;;;;;;;45.75;39.50;;;;;1.72;100.00;99866.75;6272970;22;49740;-70
2022/12/14 06:45:07;;;;;;;;;40.50;37.75;;;;;1.55;100.00;99844.50;6275135;22;49967;-72
2022/12/14 06:47:33;;;;;;;;;35.25;30.50;;;;;1.63;100.00;99851.72;6274785;22;50780;-73
2022/12/14 06:49:58;;;;;;;;;53.25;34.75;;;;;1.71;100.00;99867.56;6274070;22;49601;-71
2022/12/14 06:52:24;;;;;;;;;38.75;32.00;;;;;1.81;100.00;99871.41;6274732;22;50347;-68
2022/12/14 06:54:52;;;;;;;;;32.00;27.75;;;;;1.39;100.00;99798.97;6275450;22;49585;-65
2022/12/14 06:57:17;;;;;;;;;36.75;30.75;;;;;1.72;100.00;99849.50;6273938;22;67344;-66
2022/12/14 06:59:43;;;;;;;;;37.75;29.75;;;;;1.70;100.00;99838.22;6269612;22;49802;-72
2022/12/14 07:02:09;;;;;;;;;49.25;39.00;;;;;1.83;100.00;99867.19;6267833;22;49857;-68
2022/12/14 07:04:35;;;;;;;;;35.25;33.75;;;;;0.48;100.00;99649.59;6268207;22;49685;-73
2022/12/14 07:07:00;;;;;;;;;43.25;36.25;;;;;1.91;100.00;99891.69;6267569;22;54218;-70
2022/12/14 07:09:25;;;;;;;;;47.75;43.00;;;;;1.51;100.00;99830.53;6266816;22;56962;-70
2022/12/14 07:11:51;;;;;;;;;45.50;35.75;;;;;1.83;100.00;99893.06;6267352;22;49667;-68
2022/12/14 07:14:16;;;;;;;;;32.00;30.75;;;;;1.69;100.00;99872.69;6268036;22;49858;-69
2022/12/14 07:16:41;;;;;;;;;46.50;38.75;;;;;1.89;100.00;99906.28;6268010;22;50834;-68
2022/12/14 07:19:11;;;;;;;;;38.00;34.00;;;;;1.75;100.00;99892.78;6261468;22;49663;-68
2022/12/14 07:21:37;;;;;;;;;41.75;34.00;;;;;1.87;100.00;99921.75;6255200;22;50196;-67
2022/12/14 07:24:02;;;;;;;;;48.75;39.75;;;;;1.85;100.00;99914.75;6258302;22;49886;-64
2022/12/14 07:26:29;;;;;;;;;50.75;39.75;;;;;1.86;100.00;99926.84;6259053;22;50301;-68
2022/12/14 07:28:57;;;;;;;;;40.25;34.25;;;;;1.82;100.00;99931.00;6258507;22;50283;-66
2022/12/14 07:31:24;;;;;;;;;47.75;35.75;;;;;1.79;100.00;99932.59;6259113;22;49596;-65
2022/12/14 07:33:55;;;;;;;;;39.75;37.25;;;;;1.73;100.00;99939.25;6259260;22;50451;-66
2022/12/14 07:36:22;;;;;;;;;40.25;37.00;;;;;1.30;100.00;99905.50;6259029;22;50435;-65
2022/12/14 07:38:49;;;;;;;;;44.00;39.50;;;;;1.17;100.00;99872.19;6257717;22;49778;-67
2022/12/14 07:41:18;;;;;;;;;50.25;40.25;;;;;0.79;100.00;99811.94;6258346;22;50386;-66
2022/12/14 07:43:44;;;;;;;;;48.25;40.25;;;;;1.49;100.00;99934.75;6257491;22;49742;-65
2022/12/14 07:46:12;;;;;;;;;49.25;41.75;;;;;1.54;100.00;99962.56;6259039;22;49830;-67
2022/12/14 07:48:42;;;;;;;;;41.75;38.25;;;;;1.54;100.00;99956.50;6259302;22;49777;-66
2022/12/14 07:51:10;;;;;;;;;39.25;34.25;;;;;1.42;100.00;99939.63;6259533;22;49984;-66
2022/12/14 07:53:36;;;;;;;;;40.50;40.25;;;;;1.27;100.00;99905.38;6260385;22;50015;-65
2022/12/14 07:56:07;;;;;;;;;40.50;35.25;;;;;1.32;100.00;99906.44;6259359;22;50787;-66
2022/12/14 07:58:34;;;;;;;;;39.25;35.00;;;;;1.51;100.00;99912.41;6259260;22;49620;-68
2022/12/14 08:01:10;;;;;;;;;47.50;42.25;;;;;1.65;100.00;99939.78;6258744;22;49812;-64
2022/12/14 08:03:36;;;;;;;;;43.00;36.00;;;;;1.68;100.00;99940.78;6258825;22;49667;-72
2022/12/14 08:06:06;;;;;;;;;40.75;37.25;;;;;1.79;100.00;99945.53;6258397;22;51127;-69
2022/12/14 08:08:31;;;;;;;;;47.00;41.50;;;;;0.08;100.00;99667.56;6259496;22;49791;-69
2022/12/14 08:10:57;;;;;;;;;53.50;42.50;;;;;1.61;100.00;99896.47;6257995;22;49681;-69
2022/12/14 08:13:22;;;;;;;;;41.00;37.75;;;;;1.88;100.00;99941.63;6255552;22;49864;-69
2022/12/14 08:15:49;;;;;;;;;48.00;37.50;;;;;2.00;100.00;99955.06;6255739;22;49997;-73
2022/12/14 08:18:14;;;;;;;;;50.50;41.50;;;;;1.98;100.00;99943.78;6257839;22;49728;-68
2022/12/14 08:20:40;;;;;;;;;46.75;42.25;;;;;2.08;100.00;99957.09;6256784;22;49666;-67
2022/12/14 08:23:05;;;;;;;;;56.75;46.00;;;;;2.13;100.00;99961.66;6258697;22;49612;-66
2022/12/14 08:25:30;;;;;;;;;50.00;40.00;;;;;2.06;100.00;99948.41;6258611;22;51046;-69
2022/12/14 08:27:56;;;;;;;;;52.00;42.75;;;;;1.88;100.00;99913.16;6258100;22;49616;-68
2022/12/14 08:30:21;;;;;;;;;40.75;32.75;;;;;2.19;100.00;99951.53;6257544;22;49655;-67
2022/12/14 08:32:46;;;;;;;;;45.00;37.00;;;;;2.14;100.00;99957.38;6254337;22;49597;-68
2022/12/14 08:35:12;;;;;;;;;41.50;40.00;;;;;2.29;100.00;99969.22;6257382;22;51096;-67
2022/12/14 08:37:37;;;;;;;;;52.00;44.25;;;;;1.98;100.00;99917.00;6257856;22;49900;-67
2022/12/14 08:40:03;;;;;;;;;47.25;43.00;;;;;2.12;100.00;99908.09;6258657;22;49735;-67
2022/12/14 08:42:28;;;;;;;;;50.00;43.75;;;;;2.34;100.00;99953.00;6258720;22;49938;-67
2022/12/14 08:44:53;;;;;;;;;67.67;53.33;;;;;1.94;100.00;99897.88;6261679;22;49663;-69
2022/12/14 08:47:19;;;;;;;;;56.25;46.75;;;;;2.42;100.00;99981.00;6266707;22;49888;-67
2022/12/14 08:49:44;;;;;;;;;54.25;47.75;;;;;2.48;100.00;99968.25;6266903;22;49632;-68
2022/12/14 08:52:10;;;;;;;;;60.00;48.33;;;;;2.22;100.00;99911.94;6267225;22;49724;-68
2022/12/14 08:54:35;;;;;;;;;55.50;44.50;;;;;2.57;100.00;99960.84;6266096;22;50419;-68
2022/12/14 08:57:02;;;;;;;;;50.25;39.50;;;;;1.85;100.00;99844.88;6290969;22;49755;-70
2022/12/14 08:59:28;;;;;;;;;38.25;33.25;;;;;2.33;98.71;99930.53;6266447;22;49720;-71
2022/12/14 09:01:53;;;;;;;;;44.75;40.00;;;;;2.17;99.98;99893.63;6267199;22;49593;-67
2022/12/14 09:04:19;;;;;;;;;44.75;41.25;;;;;2.72;99.80;99981.31;6266606;22;50025;-70
2022/12/14 09:06:44;;;;;;;;;46.00;41.00;;;;;2.69;97.72;99988.97;6264538;22;50080;-69
2022/12/14 09:09:10;;;;;;;;;43.50;39.25;;;;;2.66;98.52;99975.00;6264330;22;50256;-68
2022/12/14 09:11:35;;;;;;;;;34.00;27.75;;;;;2.67;96.76;99974.19;6266860;22;49846;-68
2022/12/14 09:14:01;;;;;;;;;55.00;42.00;;;;;2.42;97.91;99926.59;6265879;22;50587;-68
2022/12/14 09:16:26;;;;;;;;;48.00;43.00;;;;;2.48;96.40;99920.75;6266903;22;49742;-68
2022/12/14 09:18:52;;;;;;;;;44.00;40.50;;;;;2.88;94.99;99987.97;6267202;22;49672;-68
2022/12/14 09:21:18;;;;;;;;;44.00;41.00;;;;;2.93;94.44;99988.16;6267164;22;49837;-73
2022/12/14 09:23:44;;;;;;;;;44.25;41.25;;;;;3.04;93.77;100023.16;6266262;22;49820;-71
2022/12/14 09:26:18;;;;;;;;;46.00;40.25;;;;;3.09;93.29;100030.31;6266719;22;49846;-68
2022/12/14 09:29:01;;;;;;;;;54.50;44.50;;;;;2.95;93.97;99995.16;6264896;22;49605;-71
2022/12/14 09:31:27;;;;;;;;;46.50;41.50;;;;;3.24;93.04;100017.03;6266409;22;49719;-66
2022/12/14 09:33:53;;;;;;;;;60.00;46.50;;;;;3.11;93.50;99986.28;6263889;22;51301;-68
2022/12/14 09:36:24;;;;;;;;;57.75;44.75;;;;;2.95;92.54;99965.78;6266029;22;49745;-68
2022/12/14 09:38:54;;;;;;;;;49.25;44.50;;;;;2.22;91.86;99827.38;6267114;22;49767;-67
2022/12/14 09:41:26;;;;;;;;;51.50;41.75;;;;;3.13;92.17;99975.13;6267437;22;49884;-68
2022/12/14 09:44:35;;;;;;;;;59.25;42.75;;;;;3.49;91.03;100034.44;6266190;22;51074;-66
2022/12/14 09:47:18;;;;;;;;;59.00;46.25;;;;;3.60;91.22;100025.31;6266172;22;49651;-68
2022/12/14 09:50:00;;;;;;;;;58.00;46.25;;;;;3.55;88.03;100026.84;6266362;22;49763;-67
2022/12/14 09:52:50;;;;;;;;;44.75;40.75;;;;;3.26;87.48;99991.16;6266504;22;49782;-66
2022/12/14 09:55:31;;;;;;;;;34.50;34.00;;;;;3.44;86.93;100015.19;6266512;22;51366;-68
2022/12/14 09:58:04;;;;;;;;;49.50;42.75;;;;;3.25;85.93;100010.13;6266127;22;49639;-68
2022/12/14 10:01:05;;;;;;;;;56.25;43.75;;;;;3.38;88.03;100021.06;6266588;22;49542;-68
2022/12/14 10:04:02;;;;;;;;;65.75;46.00;;;;;3.31;87.95;99992.22;6215756;22;49698;-68
2022/12/14 10:06:41;;;;;;;;;48.25;44.75;;;;;3.42;86.20;100033.31;6266129;22;49684;-68
2022/12/14 10:09:06;;;;;;;;;43.50;36.00;;;;;3.46;86.56;100029.09;6266308;22;49703;-68
2022/12/14 10:11:49;;;;;;;;;50.75;42.50;;;;;3.48;87.25;100036.97;6266443;22;49658;-69
2022/12/14 10:14:33;;;;;;;;;54.75;43.25;;;;;3.08;85.95;99973.19;6266661;22;49812;-68
2022/12/14 10:17:13;;;;;;;;;55.75;41.00;;;;;3.53;85.70;100044.09;6266220;22;49996;-68
2022/12/14 10:19:47;;;;;;;;;46.50;43.50;;;;;3.59;86.29;100044.31;6263965;22;49660;-67
2022/12/14 10:22:18;;;;;;;;;43.25;38.75;;;;;3.57;84.66;100045.06;6265645;22;50054;-67
2022/12/14 10:24:49;;;;;;;;;56.00;47.50;;;;;3.32;85.77;100018.22;6264522;22;49728;-67
2022/12/14 10:27:22;;;;;;;;;64.00;48.33;;;;;3.27;83.63;99990.31;6265587;22;50207;-68
2022/12/14 10:30:00;;;;;;;;;57.50;46.00;;;;;3.34;85.12;99977.66;6265637;22;49887;-67
2022/12/14 10:32:37;;;;;;;;;64.67;49.00;;;;;3.55;85.20;100020.78;6265921;22;49885;-67
2022/12/14 10:35:38;;;;;;;;;46.25;43.75;;;;;3.49;85.59;100008.47;6267233;22;49739;-67
2022/12/14 10:38:17;;;;;;;;;64.67;50.33;;;;;3.25;84.76;100004.94;6263018;22;50278;-68
2022/12/14 10:40:53;;;;;;;;;63.75;53.00;;;;;3.44;85.69;100047.22;6267620;22;49800;-70
2022/12/14 10:43:28;;;;;;;;;59.00;47.75;;;;;3.08;84.96;99987.03;6264721;22;49690;-68
2022/12/14 10:46:18;;;;;;;;;59.00;46.67;;;;;3.32;86.07;100044.16;6267743;22;49871;-67
2022/12/14 10:48:46;;;;;;;;;48.75;40.75;;;;;3.33;87.15;100042.44;6266859;22;49816;-67
2022/12/14 10:51:37;;;;;;;;;74.00;54.33;;;;;3.34;87.32;100042.50;6267918;22;49724;-67
2022/12/14 10:54:25;;;;;;;;;64.00;51.67;;;;;3.44;86.87;100048.91;6266171;22;49735;-68
2022/12/14 10:56:51;;;;;;;;;59.25;49.25;;;;;3.46;87.01;100034.28;6267246;22;49467;-71
2022/12/14 10:59:20;;;;;;;;;61.50;49.00;;;;;3.49;86.89;100060.38;6266769;22;50155;-66
2022/12/14 11:01:50;;;;;;;;;51.00;43.25;;;;;3.01;86.68;99966.03;6266864;22;49733;-68
2022/12/14 11:04:44;;;;;;;;;27.75;19.00;;;;;3.28;85.81;99989.50;6266995;22;49709;-69
2022/12/14 11:07:12;;;;;;;;;57.75;47.00;;;;;3.69;84.18;100061.13;6267222;22;49527;-67
2022/12/14 11:09:38;;;;;;;;;52.00;44.00;;;;;3.34;81.29;100010.50;6266860;22;49818;-66
2022/12/14 11:12:25;;;;;;;;;31.00;26.50;;;;;2.78;81.55;99892.53;6266511;22;49826;-69
2022/12/14 11:15:00;;;;;;;;;45.75;42.50;;;;;3.69;79.81;100051.63;6266973;22;49726;-75
2022/12/14 11:17:43;;;;;;;;;50.00;42.50;;;;;3.80;80.98;100052.00;6269635;22;49724;-65
2022/12/14 11:20:08;;;;;;;;;58.00;43.25;;;;;3.88;79.39;100039.31;6266109;22;49885;-65
2022/12/14 11:22:46;;;;;;;;;54.00;45.25;;;;;3.34;77.56;99982.84;6267285;22;49592;-67
2022/12/14 11:25:34;;;;;;;;;53.75;46.50;;;;;3.29;78.55;99971.41;6267441;22;49921;-69
2022/12/14 11:28:14;;;;;;;;;53.25;45.25;;;;;3.70;78.55;100039.53;6267109;22;49794;-68
2022/12/14 11:30:39;;;;;;;;;59.00;46.00;;;;;3.73;77.96;100050.88;6266572;22;49790;-65
2022/12/14 11:33:05;;;;;;;;;50.00;40.50;;;;;3.63;76.32;100040.13;6266944;22;49568;-71
2022/12/14 11:35:31;;;;;;;;;55.75;42.50;;;;;3.70;76.15;100057.69;6266448;22;50002;-66
2022/12/14 11:37:58;;;;;;;;;63.50;47.75;;;;;3.72;76.38;100054.31;6267356;22;49873;-64
2022/12/14 11:40:25;;;;;;;;;60.75;46.50;;;;;3.33;75.88;100000.94;6266755;22;50465;-70
2022/12/14 11:42:59;;;;;;;;;57.25;42.75;;;;;3.37;74.80;99998.50;6266144;22;49869;-70
2022/12/14 11:45:24;;;;;;;;;50.50;42.75;;;;;3.79;74.09;100059.75;6264979;22;49935;-69
2022/12/14 11:48:09;;;;;;;;;55.50;43.25;;;;;3.78;74.14;100064.06;6267445;22;49731;-70
2022/12/14 11:50:34;;;;;;;;;52.50;44.00;;;;;3.33;74.70;99980.19;6266671;22;49744;-68
2022/12/14 11:53:05;;;;;;;;;36.75;31.75;;;;;3.49;75.38;100000.69;6266359;22;49673;-68
2022/12/14 11:55:35;;;;;;;;;39.50;39.50;;;;;3.87;75.09;100059.19;6266857;22;49847;-70
2022/12/14 11:58:02;;;;;;;;;73.33;55.00;;;;;3.95;75.41;100041.25;6267166;22;49597;-68
2022/12/14 12:00:33;;;;;;;;;67.33;52.67;;;;;4.04;76.37;100059.78;6266183;22;50775;-71
2022/12/14 12:03:22;;;;;;;;;55.75;44.75;;;;;3.91;74.61;100037.69;6264968;22;49852;-70
2022/12/14 12:05:49;;;;;;;;;42.25;41.25;;;;;3.71;75.26;99976.38;6267233;22;49555;-69
2022/12/14 12:08:26;;;;;;;;;55.00;44.50;;;;;4.15;74.36;100050.69;6267100;22;49723;-66
2022/12/14 12:10:54;;;;;;;;;52.00;45.75;;;;;4.03;75.92;100022.53;6266218;22;51048;-68
2022/12/14 12:13:39;;;;;;;;;54.50;42.50;;;;;4.29;74.50;100040.75;6266403;22;49772;-68
2022/12/14 12:16:13;;;;;;;;;43.75;41.00;;;;;4.30;74.62;100038.19;6267261;22;50036;-69
2022/12/14 12:18:53;;;;;;;;;53.25;44.50;;;;;4.32;73.78;100040.84;6266882;22;49656;-69
2022/12/14 12:21:30;;;;;;;;;52.75;44.25;;;;;4.33;74.16;100045.22;6266751;22;49959;-69
2022/12/14 12:24:05;;;;;;;;;55.00;44.00;;;;;4.19;74.23;100018.75;6267335;22;49747;-70
2022/12/14 12:26:48;;;;;;;;;54.75;46.25;;;;;4.29;74.43;100040.75;6265311;22;49726;-68
2022/12/14 12:29:25;;;;;;;;;68.33;52.67;;;;;4.20;73.78;100048.22;6266964;22;49577;-70
2022/12/14 12:32:09;;;;;;;;;55.25;44.75;;;;;4.16;73.71;100046.38;6266412;22;49575;-67
2022/12/14 12:34:46;;;;;;;;;49.25;39.00;;;;;3.90;72.97;100003.88;6265656;22;49574;-65
2022/12/14 12:37:19;;;;;;;;;60.00;43.75;;;;;4.12;72.92;100041.88;6266419;22;49612;-68
2022/12/14 12:39:52;;;;;;;;;53.00;43.75;;;;;4.27;73.35;100060.59;6266623;22;49793;-65
2022/12/14 12:42:40;;;;;;;;;49.00;43.00;;;;;4.22;72.48;100062.13;6266083;22;49723;-71
2022/12/14 12:45:20;;;;;;;;;56.50;45.00;;;;;3.98;73.67;100012.84;6271069;22;49609;-73
2022/12/14 12:48:04;;;;;;;;;60.25;47.25;;;;;4.34;73.82;100082.47;6266506;22;49869;-76
2022/12/14 12:50:40;;;;;;;;;55.00;45.00;;;;;4.27;72.86;100051.09;6266935;22;49742;-74
2022/12/14 12:53:15;;;;;;;;;51.50;40.75;;;;;4.12;72.68;100028.88;6266768;22;50027;-75
2022/12/14 12:55:46;;;;;;;;;51.75;40.75;;;;;4.22;72.84;100039.63;6264910;22;49681;-74
2022/12/14 12:58:19;;;;;;;;;57.50;46.50;;;;;4.46;73.28;100070.78;6265479;22;49542;-72
2022/12/14 13:00:50;;;;;;;;;66.00;50.00;;;;;4.56;73.48;100065.06;6266219;22;49638;-72
2022/12/14 13:03:26;;;;;;;;;58.00;48.50;;;;;4.34;73.66;100023.59;6263900;22;52420;-72
2022/12/14 13:05:56;;;;;;;;;56.75;46.25;;;;;3.62;72.77;99903.38;6264361;22;49683;-72
2022/12/14 13:08:33;;;;;;;;;42.00;40.50;;;;;4.11;71.64;99967.38;6267115;22;49526;-71
2022/12/14 13:11:05;;;;;;;;;50.00;41.00;;;;;4.23;71.54;100006.75;6266917;22;49589;-71
2022/12/14 13:13:34;;;;;;;;;58.50;49.75;;;;;4.43;72.12;100068.06;6265737;22;49884;-72
2022/12/14 13:16:14;;;;;;;;;68.33;52.33;;;;;4.45;73.08;100042.16;6265837;22;49904;-73
2022/12/14 13:18:44;;;;;;;;;54.50;43.50;;;;;4.57;72.94;100052.97;6266604;22;49712;-73
2022/12/14 13:21:29;;;;;;;;;57.75;46.75;;;;;4.50;72.00;100038.88;6266859;22;49692;-76
2022/12/14 13:23:54;;;;;;;;;58.25;46.25;;;;;4.22;71.75;99997.19;6265669;22;50647;-72
2022/12/14 13:26:56;;;;;;;;;52.50;42.00;;;;;4.31;71.57;100045.16;6266008;22;49828;-74
2022/12/14 13:29:51;;;;;;;;;43.50;35.50;;;;;3.62;71.53;99953.59;6265737;22;49695;-78
2022/12/14 13:32:40;;;;;;;;;55.25;47.00;;;;;4.28;72.55;100060.66;6264822;22;49989;-77
2022/12/14 13:35:40;;;;;;;;;55.25;45.00;;;;;4.30;72.54;100056.38;6266937;22;49774;-72
2022/12/14 13:38:40;;;;;;;;;51.50;44.25;;;;;4.29;72.27;100062.41;6267087;22;49684;-79
2022/12/14 13:41:31;;;;;;;;;50.75;44.50;;;;;3.94;70.74;100008.34;6267761;22;49807;-70
2022/12/14 13:44:16;;;;;;;;;61.50;46.75;;;;;3.94;71.47;100018.72;6269551;22;49585;-74
2022/12/14 13:46:42;;;;;;;;;59.25;46.25;;;;;3.87;72.15;100038.44;6262757;22;52116;-79
2022/12/14 13:49:18;;;;;;;;;65.25;48.50;;;;;4.12;72.04;100071.31;6264572;22;49700;-77
2022/12/14 13:51:48;;;;;;;;;58.25;48.00;;;;;3.86;71.34;100033.16;6266123;22;50064;-78
2022/12/14 13:54:36;;;;;;;;;62.00;48.00;;;;;4.14;70.91;100074.84;6266085;22;50253;-75
2022/12/14 13:57:06;;;;;;;;;62.00;50.00;;;;;4.16;71.78;100080.13;6263707;22;53445;-75
2022/12/14 13:59:53;;;;;;;;;50.00;45.25;;;;;4.11;71.17;100069.56;6266309;22;49465;-67
2022/12/14 14:02:30;;;;;;;;;54.00;47.25;;;;;4.14;71.68;100081.75;6266251;22;49736;-68
2022/12/14 14:05:14;;;;;;;;;56.25;45.75;;;;;4.06;70.79;100091.91;6265721;22;49859;-71
2022/12/14 14:07:59;;;;;;;;;58.75;47.75;;;;;3.88;70.88;100053.16;6266979;22;49807;-68
2022/12/14 14:10:40;;;;;;;;;47.00;42.75;;;;;3.79;71.41;100050.25;6266688;22;49774;-74
2022/12/14 14:13:27;;;;;;;;;57.25;45.75;;;;;4.08;71.76;100094.56;6266856;22;49816;-68
2022/12/14 14:15:59;;;;;;;;;54.25;44.50;;;;;4.12;70.97;100089.50;6267569;22;49512;-72
2022/12/14 14:18:28;;;;;;;;;51.00;46.75;;;;;4.09;70.28;100092.00;6266129;22;51010;-72
2022/12/14 14:21:12;;;;;;;;;47.75;42.00;;;;;4.12;71.30;100096.41;6266796;22;49648;-70
2022/12/14 14:23:53;;;;;;;;;62.33;50.00;;;;;4.12;71.66;100097.31;6267541;22;49692;-69
2022/12/14 14:26:21;;;;;;;;;62.00;49.50;;;;;4.11;71.51;100102.44;6267676;22;49715;-66
2022/12/14 14:29:03;;;;;;;;;47.25;44.25;;;;;4.14;71.71;100093.03;6266421;22;50579;-66
2022/12/14 14:31:55;;;;;;;;;66.00;47.50;;;;;4.15;71.15;100099.13;6267704;22;49789;-70
2022/12/14 14:34:24;;;;;;;;;55.50;48.25;;;;;3.93;71.71;100081.88;6266939;22;49729;-66
2022/12/14 14:36:50;;;;;;;;;44.75;39.50;;;;;4.07;71.67;100108.38;6265979;22;49992;-66
2022/12/14 14:39:36;;;;;;;;;68.25;46.50;;;;;4.17;71.63;100123.47;6266314;22;50339;-67
2022/12/14 14:42:05;;;;;;;;;52.25;47.00;;;;;4.03;71.61;100123.81;6264914;22;49669;-65
2022/12/14 14:44:58;;;;;;;;;50.50;40.50;;;;;4.13;71.82;100119.84;6267795;22;49967;-66
2022/12/14 14:47:30;;;;;;;;;52.50;42.00;;;;;4.21;71.99;100121.00;6267821;22;49521;-64
2022/12/14 14:49:59;;;;;;;;;57.50;47.25;;;;;3.99;71.93;100092.50;6265325;22;50479;-67
2022/12/14 14:52:36;;;;;;;;;52.00;42.75;;;;;4.29;72.30;100121.28;6266116;22;49781;-65
2022/12/14 14:55:36;;;;;;;;;57.50;43.25;;;;;4.33;71.97;100117.97;6264690;22;49809;-65
2022/12/14 14:58:01;;;;;;;;;59.33;49.00;;;;;4.23;71.53;100097.69;6266658;22;49646;-65
2022/12/14 15:00:28;;;;;;;;;55.00;46.00;;;;;4.12;71.97;100093.81;6266204;22;58591;-64
2022/12/14 15:02:55;;;;;;;;;56.25;47.25;;;;;3.98;71.95;100081.25;6266575;22;49605;-65
2022/12/14 15:05:26;;;;;;;;;48.00;41.50;;;;;4.11;72.23;100103.34;6266638;22;49533;-67
2022/12/14 15:07:57;;;;;;;;;55.50;47.00;;;;;4.11;72.02;100112.84;6266298;22;49721;-65
2022/12/14 15:10:29;;;;;;;;;51.50;43.50;;;;;4.16;70.58;100147.69;6266217;22;49742;-67
2022/12/14 15:13:02;;;;;;;;;58.00;45.00;;;;;4.10;70.82;100139.66;6264007;22;49634;-66
2022/12/14 15:15:33;;;;;;;;;59.00;46.50;;;;;4.08;70.63;100144.78;6267150;22;49708;-66
2022/12/14 15:18:31;;;;;;;;;63.50;49.00;;;;;4.00;71.33;100136.72;6267753;22;49900;-65
2022/12/14 15:21:11;;;;;;;;;51.50;45.00;;;;;3.91;71.56;100122.50;6259934;22;50740;-66
2022/12/14 15:23:41;;;;;;;;;60.75;47.25;;;;;3.99;71.00;100141.84;6266971;22;49646;-68
2022/12/14 15:26:34;;;;;;;;;56.75;44.50;;;;;3.91;71.61;100132.88;6267018;22;49562;-67
2022/12/14 15:29:03;;;;;;;;;65.75;47.25;;;;;3.93;70.75;100134.69;6265835;22;49958;-66
2022/12/14 15:31:35;;;;;;;;;62.50;46.00;;;;;3.73;71.08;100108.00;6266825;22;49785;-66
2022/12/14 15:34:03;;;;;;;;;61.75;46.75;;;;;3.69;71.40;100119.09;6266252;22;49678;-67
2022/12/14 15:36:41;;;;;;;;;50.75;41.00;;;;;3.77;71.18;100145.38;6267402;22;49755;-65
2022/12/14 15:39:26;;;;;;;;;51.25;43.50;;;;;3.77;71.76;100140.16;6267438;22;49841;-66
2022/12/14 15:42:01;;;;;;;;;61.25;46.50;;;;;3.65;71.24;100130.19;6266166;22;50037;-65
2022/12/14 15:44:26;;;;;;;;;61.33;48.67;;;;;3.33;71.76;100083.97;6267651;22;49653;-65
2022/12/14 15:46:54;;;;;;;;;50.50;41.50;;;;;3.51;71.44;100117.53;6264652;22;49879;-64
2022/12/14 15:49:21;;;;;;;;;54.50;45.75;;;;;3.62;72.44;100124.88;6267200;22;49640;-64
2022/12/14 15:51:48;;;;;;;;;56.25;45.25;;;;;3.68;71.63;100152.81;6267163;22;51387;-72
2022/12/14 20:11:14;;;;;;;;;63.00;46.67;;;;;0.98;79.69;100281.41;5066059;27;49710;-74
2022/12/14 20:13:39;;;;;;;;;62.33;50.33;;;;;1.57;78.88;100342.13;5065787;27;49806;-78
2022/12/14 20:16:05;;;;;;;;;59.67;51.00;;;;;1.58;77.60;100313.72;5068778;28;49889;-75
2022/12/14 20:18:31;;;;;;;;;58.33;45.67;;;;;1.82;77.72;100336.44;5068606;28;50706;-74
2022/12/14 20:21:04;;;;;;;;;64.33;51.67;;;;;1.96;77.12;100341.47;5068496;28;49901;-67
2022/12/14 20:23:31;;;;;;;;;64.00;51.33;;;;;2.01;75.63;100344.28;5068995;28;50123;-78
2022/12/14 20:26:01;;;;;;;;;63.67;51.33;;;;;2.12;74.04;100355.13;5073477;28;49621;-73
2022/12/14 20:28:26;;;;;;;;;48.67;44.67;;;;;1.67;72.20;100282.25;5066513;28;50869;-78
2022/12/14 20:30:52;;;;;;;;;55.67;46.00;;;;;2.16;72.31;100346.72;5067056;28;49531;-70
2022/12/14 20:33:17;;;;;;;;;63.00;48.33;;;;;2.02;71.28;100317.56;5066846;28;49667;-69
2022/12/14 20:35:43;;;;;;;;;62.33;44.67;;;;;2.27;71.21;100350.69;5067070;28;49784;-73
2022/12/14 20:38:09;;;;;;;;;62.75;47.50;;;;;2.36;72.11;100335.59;5066627;28;49667;-73
2022/12/14 20:40:34;;;;;;;;;50.50;42.50;;;;;2.47;71.42;100351.63;5065212;28;49858;-71
2022/12/14 20:42:59;;;;;;;;;50.33;45.67;;;;;2.33;71.63;100322.50;5066355;27;49645;-69
2022/12/14 20:45:25;;;;;;;;;45.67;40.00;;;;;2.59;71.11;100358.25;5066849;28;49965;-67
2022/12/14 20:47:53;;;;;;;;;60.00;48.67;;;;;2.66;71.14;100355.97;5066111;28;59603;-68
2022/12/14 20:50:19;;;;;;;;;51.25;43.00;;;;;2.66;70.56;100359.44;5066427;28;49671;-67
2022/12/14 20:52:44;;;;;;;;;48.00;42.67;;;;;2.48;69.80;100330.09;5066373;28;49865;-68
2022/12/14 20:55:09;;;;;;;;;55.75;42.75;;;;;2.15;68.63;100277.63;5066778;28;49784;-66
2022/12/14 20:57:35;;;;;;;;;48.50;43.75;;;;;2.70;70.25;100360.44;5065472;28;58422;-67
2022/12/14 21:00:00;;;;;;;;;61.67;49.67;;;;;2.76;69.13;100359.03;5066674;28;49689;-63
